NZCH/CHC METAR and TAF weather

Enter ICAO airport designator
Station Type Date Time Source
NZCH METAR 2019/02/16 03:00 UTC NOAA

NZCH 160300Z AUTO 17010KT 140V210 9999 OVC041/// 15/06 Q1016 NOSIG


Station Type Date Time Source
NZCH Decoded METAR 2019/02/16 03:00 UTC NOAA

Christchurch, New Zealand (NZCH) 43-29S 172-33E 30M
Feb 15, 2019 - 10:00 PM EST / 2019.02.16 0300 UTC
Wind: from the S (170 degrees) at 12 MPH (10 KT) (direction variable):0
Visibility: greater than 7 mile(s):0
Sky conditions: overcast
Temperature: 59 F (15 C)
Dew Point: 42 F (6 C)
Relative Humidity: 54%
Pressure (altimeter): 30.00 in. Hg (1016 hPa)
ob: NZCH 160300Z AUTO 17010KT 140V210 9999 OVC041/// 15/06 Q1016 NOSIG
cycle: 3

Station Type Date Time Source
NZCH TAF 2019/02/15 18:06 UTC NOAA

TAF NZCH 151705Z 1518/1618 20012G25KT 9999 -SHRA SCT020 BKN040
TEMPO 1518/1520 6000 RA BKN014
FM152300 22012KT 9999 SCT040
BECMG 1604/1606 VRB02KT
BECMG 1615/1617 06012KT


Example: see airport list